sensor_id;sensor_type;location;lat;lon;timestamp;P1;durP1;ratioP1;P2;durP2;ratioP2
16228;SDS011;8222;51.462;12.630;2022-08-21T00:00:50;25.20;;;22.60;;
16228;SDS011;8222;51.462;12.630;2022-08-21T00:03:16;25.55;;;23.05;;
16228;SDS011;8222;51.462;12.630;2022-08-21T00:05:44;25.10;;;22.42;;
16228;SDS011;8222;51.462;12.630;2022-08-21T00:08:15;26.02;;;23.40;;
16228;SDS011;8222;51.462;12.630;2022-08-21T00:10:44;25.92;;;23.23;;
16228;SDS011;8222;51.462;12.630;2022-08-21T00:13:11;25.60;;;23.20;;
16228;SDS011;8222;51.462;12.630;2022-08-21T00:15:38;24.40;;;21.80;;
16228;SDS011;8222;51.462;12.630;2022-08-21T00:18:05;24.67;;;22.17;;
16228;SDS011;8222;51.462;12.630;2022-08-21T00:20:32;25.15;;;22.75;;
16228;SDS011;8222;51.462;12.630;2022-08-21T00:22:59;23.50;;;21.23;;
16228;SDS011;8222;51.462;12.630;2022-08-21T00:25:26;23.90;;;21.50;;
16228;SDS011;8222;51.462;12.630;2022-08-21T00:27:52;22.83;;;20.42;;
16228;SDS011;8222;51.462;12.630;2022-08-21T00:30:19;23.00;;;20.80;;
16228;SDS011;8222;51.462;12.630;2022-08-21T00:32:45;21.93;;;19.83;;
16228;SDS011;8222;51.462;12.630;2022-08-21T00:35:13;21.20;;;19.17;;
16228;SDS011;8222;51.462;12.630;2022-08-21T00:37:41;20.60;;;18.58;;
16228;SDS011;8222;51.462;12.630;2022-08-21T00:40:09;20.88;;;18.88;;
16228;SDS011;8222;51.462;12.630;2022-08-21T00:42:38;20.13;;;18.27;;
16228;SDS011;8222;51.462;12.630;2022-08-21T00:45:07;20.97;;;18.93;;
16228;SDS011;8222;51.462;12.630;2022-08-21T00:47:33;19.45;;;17.55;;
16228;SDS011;8222;51.462;12.630;2022-08-21T00:49:59;19.60;;;17.70;;
16228;SDS011;8222;51.462;12.630;2022-08-21T00:52:26;18.83;;;17.03;;
16228;SDS011;8222;51.462;12.630;2022-08-21T00:54:55;19.02;;;17.20;;
16228;SDS011;8222;51.462;12.630;2022-08-21T00:57:26;19.15;;;17.38;;
16228;SDS011;8222;51.462;12.630;2022-08-21T01:00:03;18.83;;;16.92;;
16228;SDS011;8222;51.462;12.630;2022-08-21T01:02:32;18.20;;;16.48;;
16228;SDS011;8222;51.462;12.630;2022-08-21T01:04:57;18.67;;;16.85;;
16228;SDS011;8222;51.462;12.630;2022-08-21T01:07:23;17.88;;;16.25;;
16228;SDS011;8222;51.462;12.630;2022-08-21T01:09:50;17.88;;;16.17;;
16228;SDS011;8222;51.462;12.630;2022-08-21T01:12:16;18.35;;;16.48;;
16228;SDS011;8222;51.462;12.630;2022-08-21T01:14:42;16.85;;;15.35;;
16228;SDS011;8222;51.462;12.630;2022-08-21T01:17:10;16.95;;;15.25;;
16228;SDS011;8222;51.462;12.630;2022-08-21T01:19:38;16.98;;;15.27;;
16228;SDS011;8222;51.462;12.630;2022-08-21T01:22:04;15.93;;;14.47;;
16228;SDS011;8222;51.462;12.630;2022-08-21T01:24:30;16.75;;;15.15;;
16228;SDS011;8222;51.462;12.630;2022-08-21T01:26:57;15.88;;;14.38;;
16228;SDS011;8222;51.462;12.630;2022-08-21T01:29:44;16.38;;;14.90;;
16228;SDS011;8222;51.462;12.630;2022-08-21T01:32:13;15.40;;;13.90;;
16228;SDS011;8222;51.462;12.630;2022-08-21T01:34:43;15.02;;;13.70;;
16228;SDS011;8222;51.462;12.630;2022-08-21T01:37:11;15.85;;;14.38;;
16228;SDS011;8222;51.462;12.630;2022-08-21T01:39:37;15.40;;;13.90;;
16228;SDS011;8222;51.462;12.630;2022-08-21T01:42:04;14.43;;;13.15;;
16228;SDS011;8222;51.462;12.630;2022-08-21T01:44:30;15.07;;;13.68;;
16228;SDS011;8222;51.462;12.630;2022-08-21T01:46:58;14.00;;;12.70;;
16228;SDS011;8222;51.462;12.630;2022-08-21T01:49:25;14.73;;;13.35;;
16228;SDS011;8222;51.462;12.630;2022-08-21T01:51:52;15.23;;;13.77;;
16228;SDS011;8222;51.462;12.630;2022-08-21T01:54:18;13.88;;;12.68;;
16228;SDS011;8222;51.462;12.630;2022-08-21T01:56:45;12.63;;;11.43;;
16228;SDS011;8222;51.462;12.630;2022-08-21T01:59:13;12.65;;;11.55;;
16228;SDS011;8222;51.462;12.630;2022-08-21T02:01:39;12.27;;;11.07;;
16228;SDS011;8222;51.462;12.630;2022-08-21T02:04:06;11.17;;;10.17;;
16228;SDS011;8222;51.462;12.630;2022-08-21T02:06:32;11.35;;;10.25;;
16228;SDS011;8222;51.462;12.630;2022-08-21T02:08:58;10.77;;;9.93;;
16228;SDS011;8222;51.462;12.630;2022-08-21T02:11:24;11.67;;;10.60;;
16228;SDS011;8222;51.462;12.630;2022-08-21T02:13:49;10.48;;;9.57;;
16228;SDS011;8222;51.462;12.630;2022-08-21T02:16:15;10.95;;;10.05;;
16228;SDS011;8222;51.462;12.630;2022-08-21T02:18:41;10.20;;;9.23;;
16228;SDS011;8222;51.462;12.630;2022-08-21T02:21:07;10.02;;;9.07;;
16228;SDS011;8222;51.462;12.630;2022-08-21T02:23:33;9.93;;;8.93;;
16228;SDS011;8222;51.462;12.630;2022-08-21T02:25:59;10.15;;;9.25;;
16228;SDS011;8222;51.462;12.630;2022-08-21T02:28:26;9.15;;;8.38;;
16228;SDS011;8222;51.462;12.630;2022-08-21T02:30:53;9.27;;;8.38;;
16228;SDS011;8222;51.462;12.630;2022-08-21T02:33:20;9.98;;;8.45;;
16228;SDS011;8222;51.462;12.630;2022-08-21T02:35:47;9.20;;;8.40;;
16228;SDS011;8222;51.462;12.630;2022-08-21T02:38:14;8.97;;;8.17;;
16228;SDS011;8222;51.462;12.630;2022-08-21T02:40:43;7.78;;;7.05;;
16228;SDS011;8222;51.462;12.630;2022-08-21T02:43:10;8.15;;;7.45;;
16228;SDS011;8222;51.462;12.630;2022-08-21T02:45:37;8.48;;;7.53;;
16228;SDS011;8222;51.462;12.630;2022-08-21T02:48:06;8.25;;;7.55;;
16228;SDS011;8222;51.462;12.630;2022-08-21T02:50:36;8.07;;;7.25;;
16228;SDS011;8222;51.462;12.630;2022-08-21T02:53:14;8.20;;;7.50;;
16228;SDS011;8222;51.462;12.630;2022-08-21T02:55:41;7.85;;;7.15;;
16228;SDS011;8222;51.462;12.630;2022-08-21T02:58:09;7.20;;;6.60;;
16228;SDS011;8222;51.462;12.630;2022-08-21T03:00:37;7.55;;;6.82;;
16228;SDS011;8222;51.462;12.630;2022-08-21T03:03:03;7.43;;;6.68;;
16228;SDS011;8222;51.462;12.630;2022-08-21T03:05:30;7.43;;;6.72;;
16228;SDS011;8222;51.462;12.630;2022-08-21T03:07:58;6.95;;;6.25;;
16228;SDS011;8222;51.462;12.630;2022-08-21T03:10:25;6.95;;;6.35;;
16228;SDS011;8222;51.462;12.630;2022-08-21T03:12:51;7.32;;;6.63;;
16228;SDS011;8222;51.462;12.630;2022-08-21T03:15:19;6.10;;;5.57;;
16228;SDS011;8222;51.462;12.630;2022-08-21T03:17:46;6.53;;;5.93;;
16228;SDS011;8222;51.462;12.630;2022-08-21T03:20:13;6.65;;;6.15;;
16228;SDS011;8222;51.462;12.630;2022-08-21T03:22:40;6.65;;;6.05;;
16228;SDS011;8222;51.462;12.630;2022-08-21T03:25:06;6.50;;;5.93;;
16228;SDS011;8222;51.462;12.630;2022-08-21T03:27:33;6.57;;;5.87;;
16228;SDS011;8222;51.462;12.630;2022-08-21T03:29:59;6.38;;;5.88;;
16228;SDS011;8222;51.462;12.630;2022-08-21T03:32:26;6.28;;;5.68;;
16228;SDS011;8222;51.462;12.630;2022-08-21T03:34:52;7.18;;;5.75;;
16228;SDS011;8222;51.462;12.630;2022-08-21T03:37:17;6.18;;;5.68;;
16228;SDS011;8222;51.462;12.630;2022-08-21T03:39:43;5.65;;;5.15;;
16228;SDS011;8222;51.462;12.630;2022-08-21T03:42:10;5.40;;;5.00;;
16228;SDS011;8222;51.462;12.630;2022-08-21T03:44:36;6.03;;;5.50;;
16228;SDS011;8222;51.462;12.630;2022-08-21T03:47:04;5.80;;;5.25;;
16228;SDS011;8222;51.462;12.630;2022-08-21T03:49:30;5.22;;;4.78;;
16228;SDS011;8222;51.462;12.630;2022-08-21T03:51:56;5.20;;;4.70;;
16228;SDS011;8222;51.462;12.630;2022-08-21T03:54:21;6.28;;;4.80;;
16228;SDS011;8222;51.462;12.630;2022-08-21T03:56:47;5.70;;;5.10;;
16228;SDS011;8222;51.462;12.630;2022-08-21T03:59:13;5.28;;;4.78;;
16228;SDS011;8222;51.462;12.630;2022-08-21T04:01:39;5.28;;;4.68;;
16228;SDS011;8222;51.462;12.630;2022-08-21T04:04:05;5.30;;;4.90;;
16228;SDS011;8222;51.462;12.630;2022-08-21T04:06:31;5.30;;;4.80;;
16228;SDS011;8222;51.462;12.630;2022-08-21T04:08:57;5.97;;;4.80;;
16228;SDS011;8222;51.462;12.630;2022-08-21T04:11:23;6.07;;;5.50;;
16228;SDS011;8222;51.462;12.630;2022-08-21T04:13:49;5.50;;;4.40;;
16228;SDS011;8222;51.462;12.630;2022-08-21T04:16:14;5.40;;;4.78;;
16228;SDS011;8222;51.462;12.630;2022-08-21T04:18:40;5.43;;;4.82;;
16228;SDS011;8222;51.462;12.630;2022-08-21T04:21:07;6.28;;;4.95;;
16228;SDS011;8222;51.462;12.630;2022-08-21T04:23:35;6.13;;;5.30;;
16228;SDS011;8222;51.462;12.630;2022-08-21T04:26:01;5.35;;;4.90;;
16228;SDS011;8222;51.462;12.630;2022-08-21T04:28:27;6.93;;;5.70;;
16228;SDS011;8222;51.462;12.630;2022-08-21T04:30:53;5.47;;;4.95;;
16228;SDS011;8222;51.462;12.630;2022-08-21T04:33:20;5.90;;;5.40;;
16228;SDS011;8222;51.462;12.630;2022-08-21T04:35:46;6.53;;;5.15;;
16228;SDS011;8222;51.462;12.630;2022-08-21T04:38:13;8.27;;;6.15;;
16228;SDS011;8222;51.462;12.630;2022-08-21T04:40:39;5.00;;;4.60;;
16228;SDS011;8222;51.462;12.630;2022-08-21T04:43:05;4.60;;;4.20;;
16228;SDS011;8222;51.462;12.630;2022-08-21T04:45:36;4.65;;;4.35;;
16228;SDS011;8222;51.462;12.630;2022-08-21T04:48:06;4.88;;;4.47;;
16228;SDS011;8222;51.462;12.630;2022-08-21T04:50:36;5.05;;;4.65;;
16228;SDS011;8222;51.462;12.630;2022-08-21T04:53:06;5.80;;;5.07;;
16228;SDS011;8222;51.462;12.630;2022-08-21T04:55:38;5.03;;;4.63;;
16228;SDS011;8222;51.462;12.630;2022-08-21T04:58:07;5.22;;;4.72;;
16228;SDS011;8222;51.462;12.630;2022-08-21T05:00:34;5.50;;;4.35;;
16228;SDS011;8222;51.462;12.630;2022-08-21T05:03:01;6.70;;;4.25;;
16228;SDS011;8222;51.462;12.630;2022-08-21T05:05:29;4.78;;;4.38;;
16228;SDS011;8222;51.462;12.630;2022-08-21T05:07:54;5.30;;;4.50;;
16228;SDS011;8222;51.462;12.630;2022-08-21T05:10:22;6.55;;;4.75;;
16228;SDS011;8222;51.462;12.630;2022-08-21T05:12:47;5.47;;;4.28;;
16228;SDS011;8222;51.462;12.630;2022-08-21T05:15:14;5.10;;;4.70;;
16228;SDS011;8222;51.462;12.630;2022-08-21T05:17:42;7.72;;;6.97;;
16228;SDS011;8222;51.462;12.630;2022-08-21T05:20:08;5.43;;;4.90;;
16228;SDS011;8222;51.462;12.630;2022-08-21T05:22:35;4.53;;;4.13;;
16228;SDS011;8222;51.462;12.630;2022-08-21T05:25:01;4.80;;;4.40;;
16228;SDS011;8222;51.462;12.630;2022-08-21T05:27:26;4.63;;;4.28;;
16228;SDS011;8222;51.462;12.630;2022-08-21T05:29:54;4.82;;;4.43;;
16228;SDS011;8222;51.462;12.630;2022-08-21T05:32:21;6.82;;;5.40;;
16228;SDS011;8222;51.462;12.630;2022-08-21T05:34:46;5.83;;;5.10;;
16228;SDS011;8222;51.462;12.630;2022-08-21T05:37:12;6.70;;;5.50;;
16228;SDS011;8222;51.462;12.630;2022-08-21T05:39:38;6.73;;;6.07;;
16228;SDS011;8222;51.462;12.630;2022-08-21T05:42:04;8.25;;;6.90;;
16228;SDS011;8222;51.462;12.630;2022-08-21T05:44:30;7.27;;;6.57;;
16228;SDS011;8222;51.462;12.630;2022-08-21T05:47:02;7.10;;;6.40;;
16228;SDS011;8222;51.462;12.630;2022-08-21T05:49:29;8.00;;;7.15;;
16228;SDS011;8222;51.462;12.630;2022-08-21T05:51:55;7.87;;;7.07;;
16228;SDS011;8222;51.462;12.630;2022-08-21T05:54:20;8.55;;;7.45;;
16228;SDS011;8222;51.462;12.630;2022-08-21T05:56:46;8.18;;;7.38;;
16228;SDS011;8222;51.462;12.630;2022-08-21T05:59:12;7.87;;;6.60;;
16228;SDS011;8222;51.462;12.630;2022-08-21T06:01:38;7.55;;;6.85;;
16228;SDS011;8222;51.462;12.630;2022-08-21T06:04:04;6.78;;;6.05;;
16228;SDS011;8222;51.462;12.630;2022-08-21T06:06:30;6.35;;;5.80;;
16228;SDS011;8222;51.462;12.630;2022-08-21T06:08:56;6.10;;;5.50;;
16228;SDS011;8222;51.462;12.630;2022-08-21T06:11:21;6.40;;;5.55;;
16228;SDS011;8222;51.462;12.630;2022-08-21T06:13:47;6.43;;;5.80;;
16228;SDS011;8222;51.462;12.630;2022-08-21T06:16:13;6.00;;;5.13;;
16228;SDS011;8222;51.462;12.630;2022-08-21T06:18:40;6.10;;;5.00;;
16228;SDS011;8222;51.462;12.630;2022-08-21T06:21:07;6.60;;;5.20;;
16228;SDS011;8222;51.462;12.630;2022-08-21T06:23:33;6.78;;;5.35;;
16228;SDS011;8222;51.462;12.630;2022-08-21T06:26:03;5.07;;;4.10;;
16228;SDS011;8222;51.462;12.630;2022-08-21T06:28:30;4.20;;;3.80;;
16228;SDS011;8222;51.462;12.630;2022-08-21T06:30:57;4.13;;;3.60;;
16228;SDS011;8222;51.462;12.630;2022-08-21T06:33:23;4.18;;;3.75;;
16228;SDS011;8222;51.462;12.630;2022-08-21T06:35:49;5.17;;;3.73;;
16228;SDS011;8222;51.462;12.630;2022-08-21T06:38:15;5.55;;;3.78;;
16228;SDS011;8222;51.462;12.630;2022-08-21T06:40:41;6.00;;;3.30;;
16228;SDS011;8222;51.462;12.630;2022-08-21T06:43:08;4.43;;;3.30;;
16228;SDS011;8222;51.462;12.630;2022-08-21T06:45:36;3.80;;;2.60;;
16228;SDS011;8222;51.462;12.630;2022-08-21T06:48:02;5.35;;;3.42;;
16228;SDS011;8222;51.462;12.630;2022-08-21T06:50:28;4.63;;;3.40;;
16228;SDS011;8222;51.462;12.630;2022-08-21T06:52:58;3.95;;;3.30;;
16228;SDS011;8222;51.462;12.630;2022-08-21T06:55:31;4.07;;;3.50;;
16228;SDS011;8222;51.462;12.630;2022-08-21T06:57:58;4.25;;;3.00;;
16228;SDS011;8222;51.462;12.630;2022-08-21T07:00:24;4.87;;;3.77;;
16228;SDS011;8222;51.462;12.630;2022-08-21T07:02:50;3.07;;;2.87;;
16228;SDS011;8222;51.462;12.630;2022-08-21T07:05:16;4.55;;;3.50;;
16228;SDS011;8222;51.462;12.630;2022-08-21T07:07:42;5.10;;;3.20;;
16228;SDS011;8222;51.462;12.630;2022-08-21T07:10:07;3.65;;;3.10;;
16228;SDS011;8222;51.462;12.630;2022-08-21T07:12:33;3.55;;;3.25;;
16228;SDS011;8222;51.462;12.630;2022-08-21T07:14:59;3.95;;;2.90;;
16228;SDS011;8222;51.462;12.630;2022-08-21T07:17:25;4.23;;;3.23;;
16228;SDS011;8222;51.462;12.630;2022-08-21T07:19:50;4.18;;;3.38;;
16228;SDS011;8222;51.462;12.630;2022-08-21T07:22:17;5.03;;;3.53;;
16228;SDS011;8222;51.462;12.630;2022-08-21T07:24:45;3.88;;;3.38;;
16228;SDS011;8222;51.462;12.630;2022-08-21T07:27:11;3.10;;;2.90;;
16228;SDS011;8222;51.462;12.630;2022-08-21T07:29:36;3.78;;;3.38;;
16228;SDS011;8222;51.462;12.630;2022-08-21T07:32:02;3.47;;;3.10;;
16228;SDS011;8222;51.462;12.630;2022-08-21T07:34:29;3.38;;;3.08;;
16228;SDS011;8222;51.462;12.630;2022-08-21T07:36:55;4.85;;;3.03;;
16228;SDS011;8222;51.462;12.630;2022-08-21T07:39:21;4.10;;;3.35;;
16228;SDS011;8222;51.462;12.630;2022-08-21T07:41:47;2.97;;;2.53;;
16228;SDS011;8222;51.462;12.630;2022-08-21T07:44:13;3.70;;;2.80;;
16228;SDS011;8222;51.462;12.630;2022-08-21T07:46:38;3.10;;;2.80;;
16228;SDS011;8222;51.462;12.630;2022-08-21T07:49:04;5.13;;;3.25;;
16228;SDS011;8222;51.462;12.630;2022-08-21T07:51:30;4.30;;;2.77;;
16228;SDS011;8222;51.462;12.630;2022-08-21T07:53:58;3.83;;;2.92;;
16228;SDS011;8222;51.462;12.630;2022-08-21T07:56:24;4.30;;;2.80;;
16228;SDS011;8222;51.462;12.630;2022-08-21T07:58:51;5.57;;;3.13;;
16228;SDS011;8222;51.462;12.630;2022-08-21T08:01:18;5.53;;;3.33;;
16228;SDS011;8222;51.462;12.630;2022-08-21T08:03:44;3.17;;;2.95;;
16228;SDS011;8222;51.462;12.630;2022-08-21T08:06:10;3.85;;;3.45;;
16228;SDS011;8222;51.462;12.630;2022-08-21T08:08:40;4.43;;;3.08;;
16228;SDS011;8222;51.462;12.630;2022-08-21T08:11:07;3.05;;;2.70;;
16228;SDS011;8222;51.462;12.630;2022-08-21T08:13:46;2.90;;;2.70;;
16228;SDS011;8222;51.462;12.630;2022-08-21T08:16:14;3.03;;;2.70;;
16228;SDS011;8222;51.462;12.630;2022-08-21T08:18:41;3.33;;;2.75;;
16228;SDS011;8222;51.462;12.630;2022-08-21T08:21:07;4.07;;;2.95;;
16228;SDS011;8222;51.462;12.630;2022-08-21T08:23:34;4.13;;;3.00;;
16228;SDS011;8222;51.462;12.630;2022-08-21T08:26:00;2.78;;;2.58;;
16228;SDS011;8222;51.462;12.630;2022-08-21T08:28:29;3.15;;;2.22;;
16228;SDS011;8222;51.462;12.630;2022-08-21T08:30:56;3.38;;;2.47;;
16228;SDS011;8222;51.462;12.630;2022-08-21T08:33:23;2.97;;;1.90;;
16228;SDS011;8222;51.462;12.630;2022-08-21T08:35:49;3.90;;;2.00;;
16228;SDS011;8222;51.462;12.630;2022-08-21T08:38:17;2.65;;;1.80;;
16228;SDS011;8222;51.462;12.630;2022-08-21T08:43:29;3.10;;;1.90;;
16228;SDS011;8222;51.462;12.630;2022-08-21T08:45:57;2.25;;;1.60;;
16228;SDS011;8222;51.462;12.630;2022-08-21T08:54:21;1.83;;;1.65;;
16228;SDS011;8222;51.462;12.630;2022-08-21T08:57:10;2.72;;;2.05;;
16228;SDS011;8222;51.462;12.630;2022-08-21T08:59:44;3.60;;;2.42;;
16228;SDS011;8222;51.462;12.630;2022-08-21T09:02:14;2.47;;;2.20;;
16228;SDS011;8222;51.462;12.630;2022-08-21T09:04:41;2.57;;;1.90;;
16228;SDS011;8222;51.462;12.630;2022-08-21T09:10:17;3.57;;;2.17;;
16228;SDS011;8222;51.462;12.630;2022-08-21T09:18:04;4.43;;;2.47;;
16228;SDS011;8222;51.462;12.630;2022-08-21T09:26:13;2.55;;;1.75;;
16228;SDS011;8222;51.462;12.630;2022-08-21T09:28:41;2.60;;;2.20;;
16228;SDS011;8222;51.462;12.630;2022-08-21T09:31:27;3.60;;;1.98;;
16228;SDS011;8222;51.462;12.630;2022-08-21T09:34:02;2.85;;;2.10;;
16228;SDS011;8222;51.462;12.630;2022-08-21T09:36:35;2.55;;;2.30;;
16228;SDS011;8222;51.462;12.630;2022-08-21T09:39:10;1.92;;;1.75;;
16228;SDS011;8222;51.462;12.630;2022-08-21T09:41:38;3.20;;;2.22;;
16228;SDS011;8222;51.462;12.630;2022-08-21T09:44:06;2.03;;;1.93;;
16228;SDS011;8222;51.462;12.630;2022-08-21T09:46:33;3.17;;;2.13;;
16228;SDS011;8222;51.462;12.630;2022-08-21T09:49:00;3.90;;;1.98;;
16228;SDS011;8222;51.462;12.630;2022-08-21T09:56:53;2.85;;;2.08;;
16228;SDS011;8222;51.462;12.630;2022-08-21T09:59:38;3.03;;;2.00;;
16228;SDS011;8222;51.462;12.630;2022-08-21T10:02:25;4.95;;;2.10;;
16228;SDS011;8222;51.462;12.630;2022-08-21T10:04:52;2.80;;;1.70;;
16228;SDS011;8222;51.462;12.630;2022-08-21T10:07:21;2.88;;;2.20;;
16228;SDS011;8222;51.462;12.630;2022-08-21T10:13:06;3.35;;;1.90;;
16228;SDS011;8222;51.462;12.630;2022-08-21T10:23:45;3.35;;;1.92;;
16228;SDS011;8222;51.462;12.630;2022-08-21T10:28:49;2.38;;;1.70;;
16228;SDS011;8222;51.462;12.630;2022-08-21T10:39:34;4.28;;;1.90;;
16228;SDS011;8222;51.462;12.630;2022-08-21T10:42:16;3.90;;;2.00;;
16228;SDS011;8222;51.462;12.630;2022-08-21T10:47:49;2.63;;;1.80;;
16228;SDS011;8222;51.462;12.630;2022-08-21T10:53:05;3.80;;;2.03;;
16228;SDS011;8222;51.462;12.630;2022-08-21T10:55:41;2.65;;;1.75;;
16228;SDS011;8222;51.462;12.630;2022-08-21T10:58:33;3.47;;;1.92;;
16228;SDS011;8222;51.462;12.630;2022-08-21T11:01:15;4.77;;;2.20;;
16228;SDS011;8222;51.462;12.630;2022-08-21T11:03:54;3.30;;;1.90;;
16228;SDS011;8222;51.462;12.630;2022-08-21T11:06:45;2.85;;;2.00;;
16228;SDS011;8222;51.462;12.630;2022-08-21T11:09:16;3.28;;;1.88;;
16228;SDS011;8222;51.462;12.630;2022-08-21T11:11:50;2.13;;;1.70;;
16228;SDS011;8222;51.462;12.630;2022-08-21T11:17:02;3.30;;;2.23;;
16228;SDS011;8222;51.462;12.630;2022-08-21T11:19:36;2.30;;;1.90;;
16228;SDS011;8222;51.462;12.630;2022-08-21T11:22:06;2.47;;;1.75;;
16228;SDS011;8222;51.462;12.630;2022-08-21T11:25:03;4.80;;;1.90;;
16228;SDS011;8222;51.462;12.630;2022-08-21T11:30:17;2.83;;;2.00;;
16228;SDS011;8222;51.462;12.630;2022-08-21T11:35:47;2.78;;;1.92;;
16228;SDS011;8222;51.462;12.630;2022-08-21T11:38:26;2.83;;;1.70;;
16228;SDS011;8222;51.462;12.630;2022-08-21T11:41:05;3.25;;;2.08;;
16228;SDS011;8222;51.462;12.630;2022-08-21T11:43:48;3.55;;;2.00;;
16228;SDS011;8222;51.462;12.630;2022-08-21T11:54:52;3.72;;;2.22;;
16228;SDS011;8222;51.462;12.630;2022-08-21T11:57:32;4.25;;;2.03;;
16228;SDS011;8222;51.462;12.630;2022-08-21T12:00:13;2.38;;;1.95;;
16228;SDS011;8222;51.462;12.630;2022-08-21T12:02:48;2.47;;;1.70;;
16228;SDS011;8222;51.462;12.630;2022-08-21T12:05:32;3.53;;;2.08;;
16228;SDS011;8222;51.462;12.630;2022-08-21T12:08:15;3.53;;;2.17;;
16228;SDS011;8222;51.462;12.630;2022-08-21T12:11:07;3.47;;;2.03;;
16228;SDS011;8222;51.462;12.630;2022-08-21T12:13:34;2.55;;;1.95;;
16228;SDS011;8222;51.462;12.630;2022-08-21T12:16:13;4.72;;;2.33;;
16228;SDS011;8222;51.462;12.630;2022-08-21T12:19:01;3.20;;;2.22;;
16228;SDS011;8222;51.462;12.630;2022-08-21T12:21:31;2.28;;;1.88;;
16228;SDS011;8222;51.462;12.630;2022-08-21T12:24:00;3.35;;;1.98;;
16228;SDS011;8222;51.462;12.630;2022-08-21T12:29:15;2.65;;;2.00;;
16228;SDS011;8222;51.462;12.630;2022-08-21T12:34:37;3.58;;;2.40;;
16228;SDS011;8222;51.462;12.630;2022-08-21T12:37:12;2.75;;;2.05;;
16228;SDS011;8222;51.462;12.630;2022-08-21T12:39:42;2.78;;;1.98;;
16228;SDS011;8222;51.462;12.630;2022-08-21T12:42:15;3.72;;;2.15;;
16228;SDS011;8222;51.462;12.630;2022-08-21T12:45:00;2.97;;;1.95;;
16228;SDS011;8222;51.462;12.630;2022-08-21T12:47:47;3.63;;;2.55;;
16228;SDS011;8222;51.462;12.630;2022-08-21T12:50:24;4.35;;;2.45;;
16228;SDS011;8222;51.462;12.630;2022-08-21T12:55:33;3.20;;;2.30;;
16228;SDS011;8222;51.462;12.630;2022-08-21T12:57:59;2.30;;;1.90;;
16228;SDS011;8222;51.462;12.630;2022-08-21T13:00:26;2.53;;;1.77;;
16228;SDS011;8222;51.462;12.630;2022-08-21T13:02:54;3.70;;;2.30;;
16228;SDS011;8222;51.462;12.630;2022-08-21T13:05:29;1.95;;;1.75;;
16228;SDS011;8222;51.462;12.630;2022-08-21T13:07:57;4.70;;;2.22;;
16228;SDS011;8222;51.462;12.630;2022-08-21T13:10:28;3.20;;;2.30;;
16228;SDS011;8222;51.462;12.630;2022-08-21T13:12:56;4.22;;;2.22;;
16228;SDS011;8222;51.462;12.630;2022-08-21T13:15:28;3.80;;;2.10;;
16228;SDS011;8222;51.462;12.630;2022-08-21T13:17:57;2.70;;;2.00;;
16228;SDS011;8222;51.462;12.630;2022-08-21T13:20:31;2.20;;;2.00;;
16228;SDS011;8222;51.462;12.630;2022-08-21T13:23:03;3.20;;;1.80;;
16228;SDS011;8222;51.462;12.630;2022-08-21T13:25:47;3.17;;;2.42;;
16228;SDS011;8222;51.462;12.630;2022-08-21T13:28:12;2.87;;;1.90;;
16228;SDS011;8222;51.462;12.630;2022-08-21T13:30:45;2.63;;;2.10;;
16228;SDS011;8222;51.462;12.630;2022-08-21T13:33:14;3.13;;;2.10;;
16228;SDS011;8222;51.462;12.630;2022-08-21T13:38:33;2.28;;;1.73;;
16228;SDS011;8222;51.462;12.630;2022-08-21T13:41:05;2.83;;;1.80;;
16228;SDS011;8222;51.462;12.630;2022-08-21T13:43:44;2.20;;;1.93;;
16228;SDS011;8222;51.462;12.630;2022-08-21T13:46:20;3.42;;;1.88;;
16228;SDS011;8222;51.462;12.630;2022-08-21T13:48:49;3.30;;;1.70;;
16228;SDS011;8222;51.462;12.630;2022-08-21T13:51:15;3.97;;;2.00;;
16228;SDS011;8222;51.462;12.630;2022-08-21T13:56:20;2.17;;;1.80;;
16228;SDS011;8222;51.462;12.630;2022-08-21T13:58:51;3.78;;;1.98;;
16228;SDS011;8222;51.462;12.630;2022-08-21T14:01:19;1.88;;;1.77;;
16228;SDS011;8222;51.462;12.630;2022-08-21T14:03:45;3.28;;;1.88;;
16228;SDS011;8222;51.462;12.630;2022-08-21T14:06:21;2.10;;;1.80;;
16228;SDS011;8222;51.462;12.630;2022-08-21T14:08:53;2.10;;;1.90;;
16228;SDS011;8222;51.462;12.630;2022-08-21T14:11:24;3.58;;;2.00;;
16228;SDS011;8222;51.462;12.630;2022-08-21T14:16:25;2.70;;;1.70;;
16228;SDS011;8222;51.462;12.630;2022-08-21T14:19:20;3.85;;;1.90;;
16228;SDS011;8222;51.462;12.630;2022-08-21T14:21:48;2.97;;;2.33;;
16228;SDS011;8222;51.462;12.630;2022-08-21T14:24:24;4.93;;;2.15;;
16228;SDS011;8222;51.462;12.630;2022-08-21T14:27:03;2.13;;;1.70;;
16228;SDS011;8222;51.462;12.630;2022-08-21T14:29:38;5.15;;;2.30;;
16228;SDS011;8222;51.462;12.630;2022-08-21T14:32:09;4.30;;;2.45;;
16228;SDS011;8222;51.462;12.630;2022-08-21T14:34:38;3.05;;;1.92;;
16228;SDS011;8222;51.462;12.630;2022-08-21T14:37:04;2.40;;;1.90;;
16228;SDS011;8222;51.462;12.630;2022-08-21T14:39:29;2.23;;;2.00;;
16228;SDS011;8222;51.462;12.630;2022-08-21T14:41:56;4.55;;;1.80;;
16228;SDS011;8222;51.462;12.630;2022-08-21T14:44:22;3.15;;;1.80;;
16228;SDS011;8222;51.462;12.630;2022-08-21T14:46:48;2.60;;;1.97;;
16228;SDS011;8222;51.462;12.630;2022-08-21T14:49:14;2.65;;;1.90;;
16228;SDS011;8222;51.462;12.630;2022-08-21T14:51:40;2.38;;;2.17;;
16228;SDS011;8222;51.462;12.630;2022-08-21T14:54:06;2.90;;;2.00;;
16228;SDS011;8222;51.462;12.630;2022-08-21T14:56:32;2.50;;;1.83;;
16228;SDS011;8222;51.462;12.630;2022-08-21T14:59:00;3.38;;;2.20;;
16228;SDS011;8222;51.462;12.630;2022-08-21T15:01:29;1.93;;;1.70;;
16228;SDS011;8222;51.462;12.630;2022-08-21T15:03:56;2.92;;;2.35;;
16228;SDS011;8222;51.462;12.630;2022-08-21T15:06:22;2.20;;;2.00;;
16228;SDS011;8222;51.462;12.630;2022-08-21T15:08:47;3.05;;;2.08;;
16228;SDS011;8222;51.462;12.630;2022-08-21T15:11:16;2.27;;;1.90;;
16228;SDS011;8222;51.462;12.630;2022-08-21T15:13:44;2.45;;;2.05;;
16228;SDS011;8222;51.462;12.630;2022-08-21T15:16:10;2.95;;;1.90;;
16228;SDS011;8222;51.462;12.630;2022-08-21T15:18:37;2.30;;;2.08;;
16228;SDS011;8222;51.462;12.630;2022-08-21T15:21:03;2.95;;;1.98;;
16228;SDS011;8222;51.462;12.630;2022-08-21T15:23:29;2.42;;;1.77;;
16228;SDS011;8222;51.462;12.630;2022-08-21T15:25:54;2.73;;;2.03;;
16228;SDS011;8222;51.462;12.630;2022-08-21T15:28:22;2.88;;;2.03;;
16228;SDS011;8222;51.462;12.630;2022-08-21T15:30:48;6.00;;;5.40;;
16228;SDS011;8222;51.462;12.630;2022-08-21T15:33:15;3.95;;;2.42;;
16228;SDS011;8222;51.462;12.630;2022-08-21T15:35:41;2.95;;;2.10;;
16228;SDS011;8222;51.462;12.630;2022-08-21T15:38:07;4.10;;;1.90;;
16228;SDS011;8222;51.462;12.630;2022-08-21T15:40:33;3.50;;;2.07;;
16228;SDS011;8222;51.462;12.630;2022-08-21T15:43:01;2.33;;;2.05;;
16228;SDS011;8222;51.462;12.630;2022-08-21T15:45:28;4.05;;;2.10;;
16228;SDS011;8222;51.462;12.630;2022-08-21T15:47:54;3.70;;;1.90;;
16228;SDS011;8222;51.462;12.630;2022-08-21T15:50:22;2.30;;;2.10;;
16228;SDS011;8222;51.462;12.630;2022-08-21T15:52:48;2.33;;;2.10;;
16228;SDS011;8222;51.462;12.630;2022-08-21T15:55:15;3.10;;;2.05;;
16228;SDS011;8222;51.462;12.630;2022-08-21T15:57:48;2.50;;;1.67;;
16228;SDS011;8222;51.462;12.630;2022-08-21T16:00:17;2.17;;;1.93;;
16228;SDS011;8222;51.462;12.630;2022-08-21T16:02:46;2.13;;;1.92;;
16228;SDS011;8222;51.462;12.630;2022-08-21T16:05:14;3.58;;;2.05;;
16228;SDS011;8222;51.462;12.630;2022-08-21T16:07:42;2.63;;;2.03;;
16228;SDS011;8222;51.462;12.630;2022-08-21T16:10:09;2.25;;;2.05;;
16228;SDS011;8222;51.462;12.630;2022-08-21T16:12:36;2.88;;;2.35;;
16228;SDS011;8222;51.462;12.630;2022-08-21T16:15:06;2.97;;;1.92;;
16228;SDS011;8222;51.462;12.630;2022-08-21T16:17:35;2.15;;;1.90;;
16228;SDS011;8222;51.462;12.630;2022-08-21T16:20:06;2.47;;;1.98;;
16228;SDS011;8222;51.462;12.630;2022-08-21T16:22:35;2.20;;;2.00;;